Time;durP1;ratioP1;P1;durP2;ratioP2;P2;SDS_P1;SDS_P2;PMS_P1;PMS_P2;Temp;Humidity;BMP_temperature;BMP_pressure;BME280_temperature;BME280_humidity;BME280_pressure;Samples;Min_cycle;Max_cycle;Signal;HPM_P1;HPM_P2
2022/01/04 00:00:29;;;;;;;5.83;3.13;;;9.80;99.90;;;;;;5092438;28;20286;-69
2022/01/04 00:02:55;;;;;;;2.90;2.60;;;9.80;99.90;;;;;;5080439;28;20454;-69
2022/01/04 00:05:20;;;;;;;2.60;2.40;;;9.80;99.90;;;;;;5084900;28;20420;-67
2022/01/04 00:07:46;;;;;;;3.07;2.53;;;9.80;99.90;;;;;;5092260;28;20428;-69
2022/01/04 00:10:12;;;;;;;2.63;2.43;;;9.70;99.90;;;;;;5062432;28;20284;-69
2022/01/04 00:15:23;;;;;;;3.73;3.23;;;9.50;99.90;;;;;;5053626;28;20522;-68
2022/01/04 00:17:49;;;;;;;4.30;3.28;;;9.50;99.90;;;;;;5057989;22;20962;-67
2022/01/04 00:20:14;;;;;;;3.53;3.23;;;9.60;99.90;;;;;;5028187;28;20255;-68
2022/01/04 00:22:40;;;;;;;3.83;3.40;;;9.60;99.90;;;;;;5031509;28;20181;-68
2022/01/04 00:25:06;;;;;;;5.20;3.70;;;9.60;99.90;;;;;;5032668;28;20192;-68
2022/01/04 00:27:33;;;;;;;4.90;3.33;;;9.60;99.90;;;;;;5031358;28;20864;-68
2022/01/04 00:29:58;;;;;;;3.33;3.03;;;9.70;99.90;;;;;;5031523;28;20542;-67
2022/01/04 00:32:24;;;;;;;2.97;2.73;;;9.60;99.90;;;;;;5031775;28;20994;-68
2022/01/04 00:34:50;;;;;;;3.20;3.00;;;9.60;99.90;;;;;;5032917;28;20173;-68
2022/01/04 00:37:15;;;;;;;3.20;2.70;;;9.60;99.90;;;;;;5031903;28;20197;-68
2022/01/04 00:39:41;;;;;;;2.30;1.90;;;9.70;99.90;;;;;;5037729;28;20201;-67
2022/01/04 00:42:06;;;;;;;2.30;1.90;;;9.70;99.90;;;;;;5051911;28;20174;-67
2022/01/04 00:44:32;;;;;;;2.97;1.53;;;9.70;99.90;;;;;;5051820;28;20263;-67
2022/01/04 00:46:59;;;;;;;1.70;1.60;;;9.80;99.90;;;;;;5051488;28;20194;-68
2022/01/04 00:49:24;;;;;;;2.77;1.57;;;9.70;99.90;;;;;;5051405;28;20563;-67
2022/01/04 00:51:52;;;;;;;1.80;1.70;;;9.70;99.90;;;;;;5012944;28;20554;-67
2022/01/04 00:54:18;;;;;;;1.50;1.40;;;9.60;99.90;;;;;;5031479;28;20209;-68
2022/01/04 00:56:46;;;;;;;2.33;1.70;;;9.50;99.90;;;;;;5030345;28;20440;-68
2022/01/04 00:59:12;;;;;;;2.53;2.10;;;9.60;99.90;;;;;;5031398;28;20404;-67
2022/01/04 01:01:38;;;;;;;1.90;1.80;;;9.50;99.90;;;;;;5043730;28;20504;-70
2022/01/04 01:04:05;;;;;;;3.40;2.73;;;9.50;99.90;;;;;;5051870;28;20457;-67
2022/01/04 01:06:32;;;;;;;2.70;2.27;;;9.40;99.90;;;;;;5051389;28;20416;-68
2022/01/04 01:08:58;;;;;;;2.73;2.53;;;9.40;99.90;;;;;;5051694;28;20408;-68
2022/01/04 01:11:23;;;;;;;4.10;2.83;;;9.40;99.90;;;;;;5047431;28;20452;-67
2022/01/04 01:13:49;;;;;;;3.50;2.70;;;9.30;99.90;;;;;;5033496;28;20432;-68
2022/01/04 01:16:15;;;;;;;3.50;3.20;;;9.30;99.90;;;;;;5036686;28;20186;-68
2022/01/04 01:18:41;;;;;;;4.00;3.60;;;9.40;99.90;;;;;;5037655;28;20209;-69
2022/01/04 01:21:07;;;;;;;4.23;3.80;;;9.50;99.90;;;;;;5037781;28;20446;-68
2022/01/04 01:23:34;;;;;;;4.03;3.70;;;9.50;99.90;;;;;;5037599;28;20200;-68
2022/01/04 01:26:00;;;;;;;4.33;3.93;;;9.50;99.90;;;;;;5031361;28;20863;-68
2022/01/04 01:28:25;;;;;;;5.57;5.07;;;9.50;99.90;;;;;;5033068;28;20499;-67
2022/01/04 01:30:52;;;;;;;5.40;4.90;;;9.40;99.90;;;;;;5034311;28;20181;-68
2022/01/04 01:33:17;;;;;;;6.50;4.80;;;9.40;99.90;;;;;;5035592;28;20211;-67
2022/01/04 01:35:44;;;;;;;4.93;4.43;;;9.40;99.90;;;;;;5034208;28;20416;-68
2022/01/04 01:38:10;;;;;;;6.07;5.47;;;9.50;99.90;;;;;;5034450;28;20320;-67
2022/01/04 01:40:37;;;;;;;5.60;5.00;;;9.50;99.90;;;;;;5034313;28;20415;-68
2022/01/04 01:43:03;;;;;;;5.50;5.00;;;9.40;99.90;;;;;;5035666;28;20917;-67
2022/01/04 01:45:28;;;;;;;4.83;4.30;;;9.40;99.90;;;;;;5034263;28;20420;-67
2022/01/04 01:47:54;;;;;;;5.30;4.80;;;9.40;99.90;;;;;;5034586;28;20439;-67
2022/01/04 01:50:20;;;;;;;5.97;4.77;;;9.40;99.90;;;;;;5034501;28;20178;-67
2022/01/04 01:52:48;;;;;;;5.20;4.73;;;9.40;99.90;;;;;;5034427;28;20202;-67
2022/01/04 01:55:16;;;;;;;5.10;4.60;;;9.50;99.90;;;;;;5035838;28;20792;-67
2022/01/04 01:57:42;;;;;;;5.07;4.57;;;9.50;99.90;;;;;;5034034;28;20437;-67
2022/01/04 02:00:10;;;;;;;5.43;4.93;;;9.50;99.90;;;;;;5034533;28;20936;-66
2022/01/04 02:02:36;;;;;;;4.90;4.00;;;9.50;99.90;;;;;;5034240;28;20178;-66
2022/01/04 02:05:02;;;;;;;4.37;3.97;;;9.40;99.90;;;;;;5035474;28;20421;-67
2022/01/04 02:07:29;;;;;;;4.23;3.83;;;9.40;99.90;;;;;;5033618;28;20205;-67
2022/01/04 02:10:13;;;;;;;3.73;3.43;;;9.40;99.90;;;;;;5017072;28;20435;-67
2022/01/04 02:12:41;;;;;;;3.10;2.90;;;9.30;99.90;;;;;;5034838;28;20547;-67
2022/01/04 02:15:09;;;;;;;3.07;2.77;;;9.20;99.90;;;;;;5035552;28;20431;-67
2022/01/04 02:17:35;;;;;;;3.00;2.80;;;9.20;99.90;;;;;;5035356;28;20441;-68
2022/01/04 02:20:01;;;;;;;2.77;2.40;;;9.30;99.90;;;;;;5036887;28;20425;-68
2022/01/04 02:59:37;;;;;;;3.20;2.90;;;9.20;99.90;;;;;;5039904;28;20407;-67
2022/01/04 03:02:03;;;;;;;3.20;2.87;;;9.10;99.90;;;;;;5052519;28;20413;-69
2022/01/04 03:04:29;;;;;;;4.00;3.30;;;9.10;99.90;;;;;;5052498;28;20410;-67
2022/01/04 03:06:54;;;;;;;3.73;3.30;;;9.10;99.90;;;;;;5052969;28;20435;-66
2022/01/04 03:09:20;;;;;;;3.93;2.97;;;9.10;99.90;;;;;;5052989;28;20602;-69
2022/01/04 03:11:46;;;;;;;3.60;3.07;;;9.20;99.90;;;;;;5038375;28;20617;-69
2022/01/04 03:14:11;;;;;;;3.57;3.27;;;9.10;99.90;;;;;;5015105;28;20188;-67
2022/01/04 03:16:37;;;;;;;2.50;2.30;;;9.10;99.90;;;;;;5032496;28;20181;-67
2022/01/04 03:19:06;;;;;;;2.90;2.73;;;9.20;99.90;;;;;;5032792;28;20167;-67
2022/01/04 03:21:35;;;;;;;3.10;2.90;;;9.10;99.90;;;;;;5032672;28;20189;-67
2022/01/04 03:24:03;;;;;;;3.23;2.90;;;9.00;99.90;;;;;;5052261;28;20423;-67
2022/01/04 03:26:29;;;;;;;2.80;2.60;;;9.10;99.90;;;;;;5052208;28;20463;-67
2022/01/04 03:28:54;;;;;;;4.80;2.90;;;9.10;99.90;;;;;;5052719;28;20440;-68
2022/01/04 03:31:20;;;;;;;3.00;2.70;;;9.10;99.90;;;;;;5052698;28;20451;-67
2022/01/04 03:33:46;;;;;;;2.83;2.63;;;9.10;99.90;;;;;;5050837;28;20177;-69
2022/01/04 03:36:12;;;;;;;2.60;2.40;;;9.20;99.90;;;;;;5051562;28;20208;-67
2022/01/04 03:38:37;;;;;;;2.97;2.67;;;9.10;99.90;;;;;;5051596;28;20178;-68
2022/01/04 03:41:05;;;;;;;3.00;2.70;;;9.10;99.90;;;;;;5051702;28;20490;-68
2022/01/04 03:43:32;;;;;;;3.07;2.77;;;9.20;99.90;;;;;;5050202;28;20168;-69
2022/01/04 03:45:57;;;;;;;2.70;2.30;;;9.10;99.90;;;;;;5051617;28;20413;-69
2022/01/04 03:48:23;;;;;;;3.10;2.77;;;9.20;99.90;;;;;;5051887;28;20978;-67
2022/01/04 03:50:48;;;;;;;2.10;2.00;;;9.20;99.90;;;;;;5051884;28;20206;-67
2022/01/04 03:53:14;;;;;;;2.50;2.30;;;9.20;99.90;;;;;;5051463;28;20297;-69
2022/01/04 03:55:39;;;;;;;5.30;2.30;;;9.00;99.90;;;;;;5050144;28;20182;-69
2022/01/04 03:58:05;;;;;;;4.30;2.60;;;9.00;99.90;;;;;;5051966;28;20270;-69
2022/01/04 04:00:30;;;;;;;2.03;1.83;;;9.00;99.90;;;;;;5034416;28;20672;-69
2022/01/04 04:02:56;;;;;;;2.57;2.37;;;8.90;99.90;;;;;;5052219;28;20185;-69
2022/01/04 04:05:21;;;;;;;2.90;2.53;;;9.10;99.90;;;;;;5050618;28;20171;-67
2022/01/04 04:07:47;;;;;;;2.83;2.63;;;9.10;99.90;;;;;;5052778;28;20200;-67
2022/01/04 04:10:12;;;;;;;2.47;2.27;;;9.10;99.90;;;;;;5053004;28;20651;-68
2022/01/04 04:12:38;;;;;;;3.17;2.87;;;9.00;99.90;;;;;;5052247;28;20281;-68
2022/01/04 04:15:08;;;;;;;3.67;3.37;;;9.00;99.90;;;;;;5048486;28;20170;-68
2022/01/04 04:17:34;;;;;;;3.00;2.80;;;9.10;99.90;;;;;;5031993;28;20223;-68
2022/01/04 04:20:00;;;;;;;3.90;3.50;;;9.10;99.90;;;;;;5013419;28;20966;-68
2022/01/04 04:22:25;;;;;;;3.73;3.20;;;9.10;99.90;;;;;;5031968;28;20452;-68
2022/01/04 04:24:51;;;;;;;3.73;3.43;;;9.10;99.90;;;;;;5033464;28;20181;-67
2022/01/04 04:27:17;;;;;;;4.40;3.33;;;9.20;99.90;;;;;;5049746;28;20197;-67
2022/01/04 04:29:42;;;;;;;4.53;4.07;;;9.20;99.90;;;;;;5052808;28;20184;-67
2022/01/04 04:32:09;;;;;;;4.20;3.80;;;9.20;99.90;;;;;;5048859;28;20202;-67
2022/01/04 04:34:34;;;;;;;4.43;3.87;;;9.20;99.90;;;;;;5032398;28;20278;-67
2022/01/04 04:37:00;;;;;;;4.40;3.80;;;9.20;99.90;;;;;;5032834;28;20821;-68
2022/01/04 04:39:26;;;;;;;5.07;4.43;;;9.20;99.90;;;;;;5032036;28;20257;-68
2022/01/04 04:41:52;;;;;;;5.10;4.60;;;9.10;99.90;;;;;;5031233;28;20178;-68
2022/01/04 04:44:18;;;;;;;4.20;3.80;;;9.10;99.90;;;;;;5031714;28;20194;-68
2022/01/04 04:46:44;;;;;;;4.20;3.80;;;9.10;99.90;;;;;;5031104;28;20906;-67
2022/01/04 04:49:10;;;;;;;4.20;3.43;;;9.00;99.90;;;;;;5031952;28;20443;-68
2022/01/04 04:51:35;;;;;;;3.83;3.43;;;9.00;99.90;;;;;;5035620;28;20506;-67
2022/01/04 04:54:01;;;;;;;5.73;4.60;;;9.00;99.90;;;;;;5035938;28;20175;-67
2022/01/04 04:56:26;;;;;;;5.63;4.43;;;9.00;99.90;;;;;;5035535;28;20528;-67
2022/01/04 04:58:52;;;;;;;4.90;4.40;;;9.10;99.90;;;;;;5035813;28;20171;-68
2022/01/04 05:01:18;;;;;;;5.00;4.50;;;9.00;99.90;;;;;;5036979;28;20190;-67
2022/01/04 05:03:43;;;;;;;4.47;3.87;;;9.00;99.90;;;;;;5035733;28;20182;-68
2022/01/04 05:06:09;;;;;;;5.17;4.50;;;9.00;99.90;;;;;;5034752;28;20508;-68
2022/01/04 05:08:34;;;;;;;4.83;4.30;;;9.00;99.90;;;;;;5035037;28;20197;-68
2022/01/04 05:11:02;;;;;;;4.73;3.80;;;9.00;99.90;;;;;;5019093;28;20181;-68
2022/01/04 05:13:28;;;;;;;4.77;4.13;;;9.00;99.90;;;;;;5017636;28;20555;-67
2022/01/04 05:15:54;;;;;;;4.93;4.40;;;9.10;99.90;;;;;;5035412;28;20513;-68
2022/01/04 05:18:19;;;;;;;4.33;3.93;;;9.10;99.90;;;;;;5035106;28;20862;-67
2022/01/04 05:20:45;;;;;;;3.93;3.50;;;9.10;99.90;;;;;;5035227;28;20419;-68
2022/01/04 05:23:11;;;;;;;4.60;4.07;;;9.10;99.90;;;;;;5035889;28;20189;-68
2022/01/04 05:25:36;;;;;;;7.30;4.63;;;9.10;99.90;;;;;;5034430;28;20167;-68
2022/01/04 05:28:02;;;;;;;4.93;4.43;;;9.10;99.90;;;;;;5033826;28;20203;-68
2022/01/04 05:30:27;;;;;;;7.20;4.30;;;9.10;99.90;;;;;;5017117;28;20186;-68
2022/01/04 05:32:53;;;;;;;4.83;4.10;;;9.10;99.90;;;;;;5035276;28;20464;-68
2022/01/04 05:35:18;;;;;;;6.63;4.30;;;9.00;99.90;;;;;;5034482;28;20186;-68
2022/01/04 05:37:44;;;;;;;5.60;4.50;;;9.00;99.90;;;;;;5034563;28;20222;-69
2022/01/04 05:40:10;;;;;;;5.20;4.20;;;9.00;99.90;;;;;;5034473;28;20167;-68
2022/01/04 05:42:36;;;;;;;5.10;4.50;;;8.90;99.90;;;;;;5036176;28;20188;-68
2022/01/04 05:45:01;;;;;;;5.33;4.83;;;8.90;99.90;;;;;;5054123;28;20959;-68
2022/01/04 05:47:27;;;;;;;4.43;3.90;;;9.00;99.90;;;;;;5054110;28;20227;-68
2022/01/04 05:49:53;;;;;;;5.07;4.57;;;8.90;99.90;;;;;;5040532;28;20186;-68
2022/01/04 05:52:18;;;;;;;5.80;5.20;;;9.00;99.90;;;;;;5034350;28;20235;-68
2022/01/04 05:54:46;;;;;;;5.80;4.97;;;9.10;99.90;;;;;;5037052;28;20537;-69
2022/01/04 05:57:11;;;;;;;4.87;4.10;;;9.10;99.90;;;;;;5034365;28;20697;-69
2022/01/04 05:59:37;;;;;;;5.40;4.90;;;9.10;99.90;;;;;;5035134;28;20414;-68
2022/01/04 06:02:03;;;;;;;6.70;5.20;;;9.00;99.90;;;;;;5035616;28;20655;-67
2022/01/04 06:04:28;;;;;;;5.10;4.60;;;9.10;99.90;;;;;;5017743;28;20185;-68
2022/01/04 06:06:54;;;;;;;6.03;5.50;;;9.10;99.90;;;;;;5033486;28;20197;-67
2022/01/04 06:09:27;;;;;;;6.43;5.50;;;9.10;99.90;;;;;;5033897;28;20200;-68
2022/01/04 06:17:06;;;;;;;6.10;5.03;;;9.20;99.90;;;;;;5034149;28;20285;-68
2022/01/04 06:19:32;;;;;;;6.13;4.90;;;9.30;99.90;;;;;;5033105;28;20903;-68
2022/01/04 06:21:58;;;;;;;6.23;5.53;;;9.30;99.90;;;;;;5044631;22;20508;-69
2022/01/04 06:24:23;;;;;;;5.43;4.93;;;9.10;99.90;;;;;;5014744;28;20183;-69
2022/01/04 06:26:49;;;;;;;5.73;4.90;;;9.10;99.90;;;;;;5022177;28;20187;-70
2022/01/04 06:29:15;;;;;;;8.20;7.40;;;9.10;99.90;;;;;;5022970;28;20732;-67
2022/01/04 06:31:41;;;;;;;6.47;5.50;;;9.10;99.90;;;;;;5012181;28;20740;-69
2022/01/04 06:34:07;;;;;;;6.20;5.50;;;9.10;99.90;;;;;;5013112;28;20183;-69
2022/01/04 06:36:32;;;;;;;7.30;5.97;;;9.10;99.90;;;;;;5014689;28;20422;-68
2022/01/04 06:38:58;;;;;;;7.70;5.83;;;9.20;99.90;;;;;;5014071;28;20176;-69
2022/01/04 06:41:24;;;;;;;7.93;5.93;;;9.20;99.90;;;;;;5033504;28;20194;-69
2022/01/04 06:43:49;;;;;;;7.40;6.30;;;9.20;99.90;;;;;;5033451;28;20177;-69
2022/01/04 06:46:15;;;;;;;7.53;6.73;;;9.30;99.90;;;;;;5033148;28;20174;-70
2022/01/04 06:48:41;;;;;;;7.37;6.67;;;9.30;99.90;;;;;;5033873;28;20188;-70
2022/01/04 06:51:08;;;;;;;8.07;7.17;;;9.30;99.90;;;;;;5031715;28;20724;-69
2022/01/04 06:53:33;;;;;;;8.40;6.50;;;9.20;99.90;;;;;;5033740;28;20925;-70
2022/01/04 06:55:59;;;;;;;8.20;6.40;;;9.20;99.90;;;;;;5033224;28;20402;-70
2022/01/04 06:58:25;;;;;;;8.93;8.03;;;9.30;99.90;;;;;;5033490;28;20175;-71
2022/01/04 07:00:50;;;;;;;11.13;8.73;;;9.40;99.90;;;;;;5030148;28;20214;-70
2022/01/04 07:03:16;;;;;;;9.03;7.00;;;9.50;99.90;;;;;;5024985;28;20254;-70
2022/01/04 07:05:41;;;;;;;8.80;7.90;;;9.40;99.90;;;;;;5020991;28;20194;-68
2022/01/04 07:08:07;;;;;;;7.90;6.97;;;9.40;99.90;;;;;;5018281;28;20180;-69
2022/01/04 07:10:32;;;;;;;9.10;7.00;;;9.40;99.90;;;;;;5016584;28;20586;-69
2022/01/04 07:12:58;;;;;;;9.57;8.03;;;9.40;99.90;;;;;;5015598;28;20660;-69
2022/01/04 07:15:23;;;;;;;7.60;6.57;;;9.30;99.90;;;;;;5025009;28;20183;-69
2022/01/04 07:17:49;;;;;;;8.60;7.70;;;9.20;99.90;;;;;;5012963;28;20625;-69
2022/01/04 07:20:15;;;;;;;7.77;6.77;;;9.20;99.90;;;;;;5014364;28;20215;-69
2022/01/04 07:22:40;;;;;;;7.73;6.93;;;9.10;99.90;;;;;;5019480;28;20302;-69
2022/01/04 07:25:06;;;;;;;10.40;7.50;;;9.20;99.90;;;;;;5018343;28;20207;-68
2022/01/04 07:27:32;;;;;;;8.20;6.37;;;9.10;99.90;;;;;;5009434;28;20290;-69
2022/01/04 07:29:58;;;;;;;14.50;7.80;;;9.10;99.90;;;;;;5010830;28;20529;-68
2022/01/04 07:32:24;;;;;;;11.47;9.03;;;9.10;99.90;;;;;;5015429;28;21055;-69
2022/01/04 07:34:49;;;;;;;10.63;7.70;;;9.00;99.90;;;;;;5014606;28;20211;-70
2022/01/04 07:37:15;;;;;;;9.20;7.90;;;9.00;99.90;;;;;;5020836;28;20334;-69
2022/01/04 07:39:40;;;;;;;10.13;9.10;;;9.00;99.90;;;;;;5022435;28;20453;-69
2022/01/04 07:42:06;;;;;;;11.33;9.27;;;9.10;99.90;;;;;;5015269;28;20207;-69
2022/01/04 07:44:32;;;;;;;10.40;8.83;;;9.10;99.90;;;;;;5012065;28;20219;-68
2022/01/04 07:46:58;;;;;;;11.07;8.30;;;9.20;99.90;;;;;;5021869;28;20497;-71
2022/01/04 07:49:24;;;;;;;11.20;9.20;;;9.20;99.90;;;;;;5011432;28;20544;-70
2022/01/04 07:51:50;;;;;;;13.37;9.30;;;9.30;99.90;;;;;;5011316;28;20218;-70
2022/01/04 07:54:15;;;;;;;9.50;8.40;;;9.20;99.90;;;;;;5012175;28;20187;-70
2022/01/04 07:56:41;;;;;;;10.27;8.70;;;9.30;99.90;;;;;;5009060;28;20457;-68
2022/01/04 07:59:06;;;;;;;11.37;8.70;;;9.20;99.90;;;;;;5010165;28;20167;-70
2022/01/04 08:01:32;;;;;;;11.77;9.43;;;9.10;99.90;;;;;;5009782;28;20282;-69
2022/01/04 08:04:00;;;;;;;11.07;9.87;;;9.20;99.90;;;;;;5008575;28;20411;-68
2022/01/04 08:06:26;;;;;;;10.57;8.93;;;9.20;99.90;;;;;;5026736;28;20840;-71
2022/01/04 08:08:51;;;;;;;9.93;8.40;;;9.20;99.90;;;;;;5029505;28;20417;-70
2022/01/04 08:11:18;;;;;;;10.07;8.00;;;9.10;99.90;;;;;;5029620;28;20440;-71
2022/01/04 08:13:44;;;;;;;11.07;8.57;;;9.20;99.90;;;;;;5017171;28;20178;-70
2022/01/04 08:16:09;;;;;;;13.03;8.07;;;9.20;99.90;;;;;;5010546;28;20428;-70
2022/01/04 08:18:35;;;;;;;10.57;8.80;;;9.20;99.90;;;;;;5009726;28;20688;-71
2022/01/04 08:21:03;;;;;;;9.20;7.83;;;9.20;99.90;;;;;;5009522;28;20217;-71
2022/01/04 08:23:30;;;;;;;9.83;8.10;;;9.20;99.90;;;;;;5010211;28;20163;-71
2022/01/04 08:25:56;;;;;;;9.00;7.50;;;9.10;99.90;;;;;;5014904;28;20926;-70
2022/01/04 08:28:22;;;;;;;10.73;8.57;;;9.10;99.90;;;;;;4996986;28;20506;-69
2022/01/04 08:30:47;;;;;;;7.03;6.33;;;9.10;99.90;;;;;;4994540;28;20589;-73
2022/01/04 08:33:14;;;;;;;10.57;8.20;;;9.20;99.90;;;;;;4994688;28;20684;-70
2022/01/04 08:35:40;;;;;;;11.80;9.60;;;9.20;99.90;;;;;;4994609;28;20275;-71
2022/01/04 08:38:07;;;;;;;12.73;8.97;;;9.20;99.90;;;;;;5014030;28;21049;-71
2022/01/04 08:40:33;;;;;;;9.83;8.03;;;9.20;99.90;;;;;;5026734;28;20425;-70
2022/01/04 08:42:58;;;;;;;11.50;7.60;;;9.30;99.90;;;;;;5033518;28;20432;-69
2022/01/04 08:45:24;;;;;;;11.60;7.63;;;9.30;99.90;;;;;;5032368;28;20937;-70
2022/01/04 08:47:51;;;;;;;9.23;7.50;;;9.20;99.90;;;;;;5031478;28;20173;-70
2022/01/04 08:50:19;;;;;;;8.10;6.73;;;9.20;99.90;;;;;;5014024;28;20192;-70
2022/01/04 08:52:44;;;;;;;12.33;8.50;;;9.30;99.90;;;;;;5012601;28;21299;-71
2022/01/04 08:55:11;;;;;;;10.47;7.50;;;9.30;99.90;;;;;;5012925;28;20506;-70
2022/01/04 08:57:38;;;;;;;13.40;8.77;;;9.10;99.90;;;;;;5012074;28;20767;-70
2022/01/04 09:00:08;;;;;;;11.37;8.67;;;9.20;99.90;;;;;;5012493;28;20489;-71
2022/01/04 09:02:34;;;;;;;14.03;10.13;;;9.30;99.90;;;;;;5031754;28;20472;-70
2022/01/04 09:05:00;;;;;;;11.20;9.30;;;9.30;99.90;;;;;;5032116;28;20416;-70
2022/01/04 09:07:26;;;;;;;10.77;9.03;;;9.30;99.90;;;;;;5031631;28;20415;-71
2022/01/04 09:09:52;;;;;;;12.53;9.97;;;9.20;99.90;;;;;;5031700;28;20485;-69
2022/01/04 09:12:20;;;;;;;11.40;9.10;;;9.10;99.90;;;;;;5029597;28;20841;-69
2022/01/04 09:14:59;;;;;;;11.10;8.40;;;9.10;99.90;;;;;;5032346;28;20272;-70
2022/01/04 09:20:23;;;;;;;10.13;9.03;;;9.20;99.90;;;;;;4988055;28;20468;-69
2022/01/04 09:22:49;;;;;;;13.13;8.83;;;9.30;99.90;;;;;;5030820;28;20433;-70
2022/01/04 09:25:15;;;;;;;14.30;8.93;;;9.20;99.90;;;;;;5031469;28;20642;-70
2022/01/04 09:27:40;;;;;;;8.63;7.00;;;9.30;99.90;;;;;;5018717;28;20191;-71
2022/01/04 09:30:07;;;;;;;11.47;8.40;;;9.30;99.90;;;;;;5009933;28;20183;-69
2022/01/04 09:32:33;;;;;;;9.50;7.13;;;9.30;99.90;;;;;;5012186;28;20593;-70
2022/01/04 09:35:00;;;;;;;10.97;7.70;;;9.30;99.90;;;;;;5011470;28;20844;-71
2022/01/04 09:37:25;;;;;;;10.83;7.80;;;9.30;99.90;;;;;;5010383;28;20954;-71
2022/01/04 09:39:52;;;;;;;9.80;8.33;;;9.20;99.90;;;;;;5010818;28;20427;-69
2022/01/04 09:42:20;;;;;;;10.57;7.30;;;9.20;99.90;;;;;;5011302;28;20195;-70
2022/01/04 09:44:48;;;;;;;11.50;7.00;;;9.20;99.90;;;;;;5012103;28;20422;-71
2022/01/04 09:47:13;;;;;;;9.67;7.43;;;9.20;99.90;;;;;;5011134;28;20469;-71
2022/01/04 09:49:39;;;;;;;8.20;6.43;;;9.20;99.90;;;;;;5019718;28;20808;-69
2022/01/04 09:52:08;;;;;;;7.30;5.77;;;9.30;99.90;;;;;;5032526;28;20210;-69
2022/01/04 09:54:36;;;;;;;6.67;5.60;;;9.30;99.90;;;;;;5029377;28;20277;-69
2022/01/04 09:57:02;;;;;;;10.70;6.50;;;9.30;99.90;;;;;;5031122;28;20405;-70
2022/01/04 09:59:28;;;;;;;7.50;5.80;;;9.30;99.90;;;;;;5031597;28;20416;-69
2022/01/04 10:02:01;;;;;;;6.13;5.37;;;9.40;99.90;;;;;;5030923;28;20783;-70
2022/01/04 10:04:27;;;;;;;8.60;5.03;;;9.50;99.90;;;;;;5029973;28;20168;-70
2022/01/04 10:07:05;;;;;;;5.93;5.10;;;9.50;99.90;;;;;;5031301;28;20431;-70
2022/01/04 10:09:46;;;;;;;5.90;5.30;;;9.50;99.90;;;;;;5031261;28;20167;-70
2022/01/04 10:12:16;;;;;;;5.93;5.37;;;9.50;99.90;;;;;;5031786;28;20579;-71
2022/01/04 10:14:48;;;;;;;6.90;5.17;;;9.40;99.90;;;;;;5030106;28;20413;-71
2022/01/04 10:17:21;;;;;;;8.30;5.93;;;9.30;99.90;;;;;;4991525;28;20781;-69
2022/01/04 10:19:49;;;;;;;7.33;6.00;;;9.30;99.90;;;;;;4992308;28;21071;-70
2022/01/04 10:22:27;;;;;;;7.00;6.00;;;9.30;99.90;;;;;;4991567;28;20455;-69
2022/01/04 10:25:02;;;;;;;7.37;5.27;;;9.40;99.90;;;;;;4991614;28;20426;-69
2022/01/04 10:27:29;;;;;;;6.80;6.03;;;9.40;99.90;;;;;;5001363;28;20434;-70
2022/01/04 10:30:22;;;;;;;6.90;5.27;;;9.30;99.90;;;;;;5004349;28;20418;-71
2022/01/04 10:32:50;;;;;;;7.10;5.33;;;9.20;99.90;;;;;;5011283;28;20481;-72
2022/01/04 10:35:37;;;;;;;7.40;6.00;;;9.20;99.90;;;;;;5011113;28;21212;-70
2022/01/04 10:38:14;;;;;;;5.90;5.30;;;9.20;99.90;;;;;;5012270;28;20445;-70
2022/01/04 10:40:44;;;;;;;7.90;7.00;;;9.20;99.90;;;;;;5025584;28;20414;-70
2022/01/04 10:43:13;;;;;;;7.03;6.23;;;9.20;99.90;;;;;;5030731;28;20385;-71
2022/01/04 10:45:42;;;;;;;7.40;6.30;;;9.20;99.90;;;;;;5030178;28;20409;-69
2022/01/04 10:48:10;;;;;;;8.37;6.60;;;9.20;99.90;;;;;;5030276;28;20500;-71
2022/01/04 10:50:37;;;;;;;9.87;6.87;;;9.20;99.90;;;;;;5004086;28;20430;-70
2022/01/04 10:53:04;;;;;;;9.00;7.47;;;9.10;99.90;;;;;;5011406;28;20520;-71
2022/01/04 10:55:34;;;;;;;8.50;6.20;;;9.00;99.90;;;;;;4998983;28;20421;-71
2022/01/04 10:58:01;;;;;;;7.00;5.97;;;9.00;99.90;;;;;;5011149;28;20427;-71
2022/01/04 11:00:28;;;;;;;7.47;6.10;;;9.10;99.90;;;;;;5011524;28;20433;-70
2022/01/04 11:02:54;;;;;;;8.80;7.60;;;9.00;99.90;;;;;;5011007;28;20420;-71
2022/01/04 11:05:21;;;;;;;8.33;7.37;;;9.10;99.90;;;;;;5010782;28;20403;-71
2022/01/04 11:08:09;;;;;;;7.00;6.30;;;9.00;99.90;;;;;;5010679;28;20643;-70
2022/01/04 11:10:36;;;;;;;6.57;5.40;;;9.10;99.90;;;;;;5011408;28;20395;-70
2022/01/04 11:13:02;;;;;;;8.10;6.70;;;9.10;99.90;;;;;;5029719;28;20476;-71
2022/01/04 11:15:29;;;;;;;6.43;5.80;;;9.20;99.90;;;;;;5030718;28;20438;-70
2022/01/04 11:17:58;;;;;;;7.10;6.00;;;9.10;99.90;;;;;;5030500;28;20421;-69
2022/01/04 11:20:24;;;;;;;7.23;6.60;;;9.10;99.90;;;;;;5030603;28;20435;-71
2022/01/04 11:22:51;;;;;;;5.87;5.27;;;9.00;99.90;;;;;;5028099;28;20427;-70
2022/01/04 11:25:22;;;;;;;7.10;5.63;;;9.10;99.90;;;;;;5031241;28;20437;-70
2022/01/04 11:27:48;;;;;;;9.57;6.10;;;9.10;99.90;;;;;;5017488;28;20480;-70
2022/01/04 11:30:24;;;;;;;7.20;6.50;;;9.10;99.90;;;;;;5011340;28;20455;-70
2022/01/04 11:32:57;;;;;;;6.70;6.00;;;9.10;99.90;;;;;;5012227;28;20454;-69
2022/01/04 11:35:24;;;;;;;8.20;7.40;;;9.10;99.90;;;;;;5009726;28;20918;-71
2022/01/04 11:37:55;;;;;;;8.67;7.63;;;9.00;99.90;;;;;;5009794;28;20754;-70
2022/01/04 11:40:25;;;;;;;7.70;6.90;;;9.10;99.90;;;;;;5011238;28;20437;-67
2022/01/04 11:42:52;;;;;;;12.20;8.73;;;9.00;99.90;;;;;;5016171;28;20431;-70
2022/01/04 11:45:37;;;;;;;10.90;7.90;;;9.00;99.90;;;;;;5015421;28;20954;-69
2022/01/04 11:48:03;;;;;;;9.63;8.70;;;9.00;99.90;;;;;;4999525;28;20462;-69
2022/01/04 11:50:35;;;;;;;14.57;10.17;;;9.00;99.90;;;;;;5019749;28;20510;-70
2022/01/04 11:53:08;;;;;;;13.10;10.43;;;9.00;99.90;;;;;;5029474;28;20236;-71
2022/01/04 11:55:38;;;;;;;10.77;9.67;;;8.90;99.90;;;;;;5028945;28;20846;-70
2022/01/04 11:58:08;;;;;;;10.50;9.50;;;8.90;99.90;;;;;;5030501;28;20460;-72
2022/01/04 12:00:37;;;;;;;11.30;9.70;;;9.00;99.90;;;;;;5029330;28;20460;-70
2022/01/04 12:03:04;;;;;;;13.67;9.73;;;8.90;99.90;;;;;;5027377;28;20468;-70
2022/01/04 12:05:30;;;;;;;11.17;9.27;;;8.90;99.90;;;;;;5011958;28;20449;-70
2022/01/04 12:07:58;;;;;;;13.50;10.17;;;8.90;99.90;;;;;;5008983;28;20478;-70
2022/01/04 12:10:25;;;;;;;14.00;10.87;;;8.90;99.90;;;;;;5010256;28;20445;-70
2022/01/04 12:13:00;;;;;;;13.53;10.57;;;8.90;99.90;;;;;;5020940;28;20550;-70
2022/01/04 12:15:35;;;;;;;11.77;9.83;;;8.90;99.90;;;;;;5018049;28;20473;-69
2022/01/04 12:18:06;;;;;;;10.20;9.10;;;9.00;99.90;;;;;;5021432;28;20465;-68
2022/01/04 12:20:46;;;;;;;13.43;10.43;;;9.00;99.90;;;;;;5007307;28;20481;-71
2022/01/04 12:23:27;;;;;;;10.83;9.77;;;8.90;99.90;;;;;;5016937;28;20481;-71
2022/01/04 12:26:05;;;;;;;13.50;10.27;;;8.90;99.90;;;;;;5000793;28;20474;-71
2022/01/04 12:28:37;;;;;;;11.70;10.40;;;8.90;99.90;;;;;;5009315;28;20838;-68
2022/01/04 12:31:18;;;;;;;14.20;9.73;;;8.90;99.90;;;;;;5006475;28;20526;-68
2022/01/04 12:33:49;;;;;;;11.17;10.07;;;8.90;99.90;;;;;;4989014;28;20473;-72
2022/01/04 12:36:38;;;;;;;10.20;9.20;;;8.90;99.90;;;;;;4991885;28;20913;-70
2022/01/04 12:39:09;;;;;;;14.80;10.47;;;8.90;99.90;;;;;;5008202;28;20460;-71
2022/01/04 12:41:36;;;;;;;12.00;10.27;;;8.90;99.90;;;;;;4992418;28;20505;-70
2022/01/04 12:44:03;;;;;;;22.10;11.03;;;8.90;99.90;;;;;;4990304;28;20542;-68
2022/01/04 12:46:42;;;;;;;11.70;10.60;;;8.90;99.90;;;;;;5009563;28;20431;-69
2022/01/04 12:49:10;;;;;;;14.80;10.40;;;9.00;99.90;;;;;;5009226;28;20461;-70
2022/01/04 12:51:50;;;;;;;12.23;10.60;;;8.90;99.90;;;;;;5023938;28;20450;-70
2022/01/04 12:54:23;;;;;;;12.67;10.93;;;8.90;99.90;;;;;;5011043;28;20463;-69
2022/01/04 12:57:04;;;;;;;11.47;9.40;;;9.00;99.90;;;;;;5018001;28;20456;-69
2022/01/04 12:59:35;;;;;;;15.60;11.03;;;8.90;99.90;;;;;;5017506;28;20448;-70
2022/01/04 13:02:17;;;;;;;11.10;10.00;;;8.90;99.90;;;;;;4980933;28;21827;-69
2022/01/04 13:04:48;;;;;;;12.93;10.60;;;8.90;99.90;;;;;;5007679;28;20422;-68
2022/01/04 13:07:20;;;;;;;11.83;9.90;;;9.00;99.90;;;;;;5007612;28;20422;-69
2022/01/04 13:09:57;;;;;;;11.30;8.90;;;8.90;99.90;;;;;;5007758;28;20495;-69
2022/01/04 13:12:29;;;;;;;12.50;10.60;;;8.90;99.90;;;;;;4999673;28;20469;-69
2022/01/04 13:14:56;;;;;;;12.27;9.73;;;8.90;99.90;;;;;;4990996;28;20406;-68
2022/01/04 13:17:23;;;;;;;12.70;11.13;;;8.90;99.90;;;;;;4990108;28;20411;-69
2022/01/04 13:19:50;;;;;;;11.57;9.70;;;8.90;99.90;;;;;;4992430;28;20426;-69
2022/01/04 13:22:19;;;;;;;15.13;11.23;;;8.90;99.90;;;;;;5012665;28;20528;-69
2022/01/04 13:24:57;;;;;;;13.37;10.20;;;8.90;99.90;;;;;;5011905;28;20398;-70
2022/01/04 13:27:28;;;;;;;13.77;9.67;;;8.90;99.90;;;;;;5001663;28;20432;-68
2022/01/04 13:29:56;;;;;;;13.33;9.77;;;8.90;99.90;;;;;;4992130;28;20454;-69
2022/01/04 13:32:35;;;;;;;10.70;8.93;;;8.80;99.90;;;;;;4997288;28;20495;-69
2022/01/04 13:35:17;;;;;;;10.40;8.37;;;8.80;99.90;;;;;;5031905;28;20408;-68
2022/01/04 13:37:48;;;;;;;12.67;9.57;;;8.80;99.90;;;;;;5030882;28;20431;-69
2022/01/04 13:40:13;;;;;;;13.20;9.47;;;8.80;99.90;;;;;;5031389;28;20506;-68
2022/01/04 13:42:42;;;;;;;10.87;9.07;;;8.90;99.90;;;;;;5031053;28;20980;-69